Westfield, NC (27053)

1:16 AM EDT on April 28, 2017 (GMT -0400)
Lawsonville NC Hart Rd. | | Change Station

Elev 1112 ft 36.49 °N, 80.25 °W | Updated 10 seconds ago

Fog
Fog
61.7 °F
Feels Like 61.7 °F
N
0.0
Wind Variable Wind from NW
Gusts 0.0 mph

Today
High -- | Low -- °F
--% Chance of Precip.
Yesterday
High -- | Low -- °F
Precip. -- in
Pressure 29.95 in
Visibility 2.5 miles
Clouds Scattered Clouds 2200 ft
Mostly Cloudy 2800 ft
Dew Point 59 °F
Humidity 91%
Rainfall 0.00 in
Snow Depth Not available.
6:31 AM 8:07 PM
Waxing Crescent, 4% visible
METAR KMWK 280455Z AUTO 00000KT 2 1/2SM BR SCT022 BKN028 17/16 A2995 RMK AO2 P0001 T01680158
Pressure 29.95 in
Visibility 2.5 miles
Clouds Scattered Clouds 2200 ft
Mostly Cloudy 2800 ft
Dew Point 59 °F
Humidity 91%
Rainfall 0.00 in
Snow Depth Not available.
6:31 AM 8:07 PM
Waxing Crescent, 4% visible
METAR KMWK 280455Z AUTO 00000KT 2 1/2SM BR SCT022 BKN028 17/16 A2995 RMK AO2 P0001 T01680158

Get Severe Weather Alerts

Thanks for signing up!

Be on the lookout for a verification email in your inbox.

You'll start receiving the daily forecast at 8 AM.

×

10-Day Weather Forecast

Almanac

Astronomy

Apr. 28, 2017 Rise Set
Actual Time
Civil Twilight
Nautical Twilight
Astronomical Twilight
Moon
Length of Visible Light
Length of Day
Tomorrow will be .
, % of the Moon is Illuminated

Today's Extremes

State Highs State Lows

Community

WunderPhotos

WunderBlog® & News

Nearby

Air Quality

  Air Quality AQ Index Pollutant
Not available.

Snow Depth

Station Depth Elevation

Earthquake Activity

City Distance Mag. Time & Date
Minimum magnitude displayed is 2.5.

Coastal Water Temperatures

Place Temperature

Stations

Nearby Weather Stations

Station Location Temp. Windchill Dew Point Humidity Wind Precip. Elev Updated Type
                   

Watches & Warnings

There are currently no watches in effect.